sensor_id;sensor_type;location;lat;lon;timestamp;temperature;humidity
28654;DHT22;24320;56.980;24.336;2023-01-30T00:01:27;3.20;99.90
28654;DHT22;24320;56.980;24.336;2023-01-30T00:03:55;3.20;99.90
28654;DHT22;24320;56.980;24.336;2023-01-30T00:06:22;3.20;99.90
28654;DHT22;24320;56.980;24.336;2023-01-30T00:08:49;3.20;99.90
28654;DHT22;24320;56.980;24.336;2023-01-30T00:11:17;3.20;99.90
28654;DHT22;24320;56.980;24.336;2023-01-30T00:13:47;3.20;99.90
28654;DHT22;24320;56.980;24.336;2023-01-30T00:16:15;3.20;99.90
28654;DHT22;24320;56.980;24.336;2023-01-30T00:18:43;3.20;99.90
28654;DHT22;24320;56.980;24.336;2023-01-30T00:21:12;3.30;99.90
28654;DHT22;24320;56.980;24.336;2023-01-30T00:23:39;3.30;99.90
28654;DHT22;24320;56.980;24.336;2023-01-30T00:26:07;3.30;99.90
28654;DHT22;24320;56.980;24.336;2023-01-30T00:28:35;3.30;99.90
28654;DHT22;24320;56.980;24.336;2023-01-30T00:31:02;3.20;99.90
28654;DHT22;24320;56.980;24.336;2023-01-30T00:33:29;3.20;99.90
28654;DHT22;24320;56.980;24.336;2023-01-30T00:35:57;3.20;99.90
28654;DHT22;24320;56.980;24.336;2023-01-30T00:38:24;3.30;99.90
28654;DHT22;24320;56.980;24.336;2023-01-30T00:40:51;3.30;99.90
28654;DHT22;24320;56.980;24.336;2023-01-30T00:43:19;3.30;99.90
28654;DHT22;24320;56.980;24.336;2023-01-30T00:46:11;3.30;99.90
28654;DHT22;24320;56.980;24.336;2023-01-30T00:48:58;3.30;99.90
28654;DHT22;24320;56.980;24.336;2023-01-30T00:51:25;3.30;99.90
28654;DHT22;24320;56.980;24.336;2023-01-30T00:53:52;3.30;99.90
28654;DHT22;24320;56.980;24.336;2023-01-30T00:56:19;3.30;99.90
28654;DHT22;24320;56.980;24.336;2023-01-30T00:58:46;3.40;99.90
28654;DHT22;24320;56.980;24.336;2023-01-30T01:01:13;3.30;99.90
28654;DHT22;24320;56.980;24.336;2023-01-30T01:03:40;3.30;99.90
28654;DHT22;24320;56.980;24.336;2023-01-30T01:06:07;3.30;99.90
28654;DHT22;24320;56.980;24.336;2023-01-30T01:08:34;3.30;99.90
28654;DHT22;24320;56.980;24.336;2023-01-30T01:11:01;3.30;99.90
28654;DHT22;24320;56.980;24.336;2023-01-30T01:13:28;3.30;99.90
28654;DHT22;24320;56.980;24.336;2023-01-30T01:15:55;3.30;99.90
28654;DHT22;24320;56.980;24.336;2023-01-30T01:18:22;3.30;99.90
28654;DHT22;24320;56.980;24.336;2023-01-30T01:20:49;3.30;99.90
28654;DHT22;24320;56.980;24.336;2023-01-30T01:23:16;3.30;99.90
28654;DHT22;24320;56.980;24.336;2023-01-30T01:25:44;3.30;99.90
28654;DHT22;24320;56.980;24.336;2023-01-30T01:28:11;3.30;99.90
28654;DHT22;24320;56.980;24.336;2023-01-30T01:30:38;3.30;99.90
28654;DHT22;24320;56.980;24.336;2023-01-30T01:33:05;3.30;99.90
28654;DHT22;24320;56.980;24.336;2023-01-30T01:35:32;3.40;99.90
28654;DHT22;24320;56.980;24.336;2023-01-30T01:37:58;3.40;99.90
28654;DHT22;24320;56.980;24.336;2023-01-30T01:40:25;3.40;99.90
28654;DHT22;24320;56.980;24.336;2023-01-30T01:43:20;3.50;99.90
28654;DHT22;24320;56.980;24.336;2023-01-30T01:45:51;3.50;99.90
28654;DHT22;24320;56.980;24.336;2023-01-30T01:51:44;3.60;99.90
28654;DHT22;24320;56.980;24.336;2023-01-30T01:54:17;3.50;99.90
28654;DHT22;24320;56.980;24.336;2023-01-30T01:56:42;3.60;99.90
28654;DHT22;24320;56.980;24.336;2023-01-30T01:59:31;3.60;99.90
28654;DHT22;24320;56.980;24.336;2023-01-30T02:02:02;3.60;99.90
28654;DHT22;24320;56.980;24.336;2023-01-30T02:04:30;3.60;99.90
28654;DHT22;24320;56.980;24.336;2023-01-30T02:07:17;3.60;99.90
28654;DHT22;24320;56.980;24.336;2023-01-30T02:09:47;3.60;99.90
28654;DHT22;24320;56.980;24.336;2023-01-30T02:12:14;3.60;99.90
28654;DHT22;24320;56.980;24.336;2023-01-30T02:14:42;3.70;99.90
28654;DHT22;24320;56.980;24.336;2023-01-30T02:17:09;3.60;99.90
28654;DHT22;24320;56.980;24.336;2023-01-30T02:19:56;3.70;99.90
28654;DHT22;24320;56.980;24.336;2023-01-30T02:25:59;3.70;99.90
28654;DHT22;24320;56.980;24.336;2023-01-30T02:34:04;3.60;99.90
28654;DHT22;24320;56.980;24.336;2023-01-30T02:39:33;3.70;99.90
28654;DHT22;24320;56.980;24.336;2023-01-30T02:42:21;3.60;99.90
28654;DHT22;24320;56.980;24.336;2023-01-30T02:45:28;3.50;99.90
28654;DHT22;24320;56.980;24.336;2023-01-30T02:53:11;3.40;99.90
28654;DHT22;24320;56.980;24.336;2023-01-30T02:55:40;3.40;99.90
28654;DHT22;24320;56.980;24.336;2023-01-30T02:58:07;3.30;99.90
28654;DHT22;24320;56.980;24.336;2023-01-30T03:04:07;3.30;99.90
28654;DHT22;24320;56.980;24.336;2023-01-30T03:06:58;3.30;99.90
28654;DHT22;24320;56.980;24.336;2023-01-30T03:10:00;3.20;99.90
28654;DHT22;24320;56.980;24.336;2023-01-30T03:15:04;3.20;99.90
28654;DHT22;24320;56.980;24.336;2023-01-30T03:17:34;3.20;99.90
28654;DHT22;24320;56.980;24.336;2023-01-30T03:20:02;3.20;99.90
28654;DHT22;24320;56.980;24.336;2023-01-30T03:22:29;3.20;99.90
28654;DHT22;24320;56.980;24.336;2023-01-30T03:24:57;3.20;99.90
28654;DHT22;24320;56.980;24.336;2023-01-30T03:27:24;3.10;99.90
28654;DHT22;24320;56.980;24.336;2023-01-30T03:29:51;3.10;99.90
28654;DHT22;24320;56.980;24.336;2023-01-30T03:32:17;3.10;99.90
28654;DHT22;24320;56.980;24.336;2023-01-30T03:34:44;3.00;99.90
28654;DHT22;24320;56.980;24.336;2023-01-30T03:37:11;3.10;99.90
28654;DHT22;24320;56.980;24.336;2023-01-30T03:39:38;3.00;99.90
28654;DHT22;24320;56.980;24.336;2023-01-30T03:42:06;3.00;99.90
28654;DHT22;24320;56.980;24.336;2023-01-30T03:44:33;2.90;99.90
28654;DHT22;24320;56.980;24.336;2023-01-30T03:47:00;2.90;99.90
28654;DHT22;24320;56.980;24.336;2023-01-30T03:49:27;3.00;99.90
28654;DHT22;24320;56.980;24.336;2023-01-30T03:51:53;2.90;99.90
28654;DHT22;24320;56.980;24.336;2023-01-30T03:54:20;2.90;99.90
28654;DHT22;24320;56.980;24.336;2023-01-30T03:56:47;2.90;99.90
28654;DHT22;24320;56.980;24.336;2023-01-30T03:59:14;2.80;99.90
28654;DHT22;24320;56.980;24.336;2023-01-30T04:01:42;2.60;99.90
28654;DHT22;24320;56.980;24.336;2023-01-30T04:04:09;2.50;99.90
28654;DHT22;24320;56.980;24.336;2023-01-30T04:06:36;2.40;99.90
28654;DHT22;24320;56.980;24.336;2023-01-30T04:11:42;2.10;99.90
28654;DHT22;24320;56.980;24.336;2023-01-30T04:14:09;2.10;99.90
28654;DHT22;24320;56.980;24.336;2023-01-30T04:16:36;2.00;99.90
28654;DHT22;24320;56.980;24.336;2023-01-30T04:19:03;2.00;99.90
28654;DHT22;24320;56.980;24.336;2023-01-30T04:21:30;1.90;99.90
28654;DHT22;24320;56.980;24.336;2023-01-30T04:23:57;1.80;99.90
28654;DHT22;24320;56.980;24.336;2023-01-30T04:26:24;1.80;99.90
28654;DHT22;24320;56.980;24.336;2023-01-30T04:28:51;1.80;99.90
28654;DHT22;24320;56.980;24.336;2023-01-30T04:31:18;1.70;99.90
28654;DHT22;24320;56.980;24.336;2023-01-30T04:33:45;1.80;99.90
28654;DHT22;24320;56.980;24.336;2023-01-30T04:36:12;1.70;99.90
28654;DHT22;24320;56.980;24.336;2023-01-30T04:38:40;1.70;99.90
28654;DHT22;24320;56.980;24.336;2023-01-30T04:41:07;1.70;99.90
28654;DHT22;24320;56.980;24.336;2023-01-30T04:43:34;1.60;99.90
28654;DHT22;24320;56.980;24.336;2023-01-30T04:46:01;1.60;99.90
28654;DHT22;24320;56.980;24.336;2023-01-30T04:48:28;1.60;99.90
28654;DHT22;24320;56.980;24.336;2023-01-30T04:50:55;1.50;99.90
28654;DHT22;24320;56.980;24.336;2023-01-30T04:53:23;1.50;99.90
28654;DHT22;24320;56.980;24.336;2023-01-30T04:55:51;1.50;99.90
28654;DHT22;24320;56.980;24.336;2023-01-30T04:58:18;1.50;99.90
28654;DHT22;24320;56.980;24.336;2023-01-30T05:00:45;1.50;99.90
28654;DHT22;24320;56.980;24.336;2023-01-30T05:03:13;1.40;99.90
28654;DHT22;24320;56.980;24.336;2023-01-30T05:05:40;1.50;99.90
28654;DHT22;24320;56.980;24.336;2023-01-30T05:08:08;1.40;99.90
28654;DHT22;24320;56.980;24.336;2023-01-30T05:10:35;1.40;99.90
28654;DHT22;24320;56.980;24.336;2023-01-30T05:13:03;1.40;99.90
28654;DHT22;24320;56.980;24.336;2023-01-30T05:15:31;1.40;99.90
28654;DHT22;24320;56.980;24.336;2023-01-30T05:17:58;1.40;99.90
28654;DHT22;24320;56.980;24.336;2023-01-30T05:20:25;1.50;99.90
28654;DHT22;24320;56.980;24.336;2023-01-30T05:22:52;1.50;99.90
28654;DHT22;24320;56.980;24.336;2023-01-30T05:25:20;1.50;99.90
28654;DHT22;24320;56.980;24.336;2023-01-30T05:27:50;1.50;99.90
28654;DHT22;24320;56.980;24.336;2023-01-30T05:30:20;1.50;99.90
28654;DHT22;24320;56.980;24.336;2023-01-30T05:32:47;1.50;99.90
28654;DHT22;24320;56.980;24.336;2023-01-30T05:35:17;1.50;99.90
28654;DHT22;24320;56.980;24.336;2023-01-30T05:37:49;1.50;99.90
28654;DHT22;24320;56.980;24.336;2023-01-30T05:40:16;1.50;99.90
28654;DHT22;24320;56.980;24.336;2023-01-30T05:42:45;1.50;99.90
28654;DHT22;24320;56.980;24.336;2023-01-30T05:45:12;1.50;99.90
28654;DHT22;24320;56.980;24.336;2023-01-30T05:47:39;1.50;99.90
28654;DHT22;24320;56.980;24.336;2023-01-30T05:50:07;1.50;99.90
28654;DHT22;24320;56.980;24.336;2023-01-30T05:52:34;1.60;99.90
28654;DHT22;24320;56.980;24.336;2023-01-30T05:55:01;1.60;99.90
28654;DHT22;24320;56.980;24.336;2023-01-30T05:57:30;1.70;99.90
28654;DHT22;24320;56.980;24.336;2023-01-30T05:59:57;1.70;99.90
28654;DHT22;24320;56.980;24.336;2023-01-30T06:02:24;1.70;99.90
28654;DHT22;24320;56.980;24.336;2023-01-30T06:04:51;1.80;99.90
28654;DHT22;24320;56.980;24.336;2023-01-30T06:07:20;1.80;99.90
28654;DHT22;24320;56.980;24.336;2023-01-30T06:09:47;1.90;99.90
28654;DHT22;24320;56.980;24.336;2023-01-30T06:12:14;1.90;99.90
28654;DHT22;24320;56.980;24.336;2023-01-30T06:14:41;2.00;99.90
28654;DHT22;24320;56.980;24.336;2023-01-30T06:17:08;2.00;99.90
28654;DHT22;24320;56.980;24.336;2023-01-30T06:19:35;2.00;99.90
28654;DHT22;24320;56.980;24.336;2023-01-30T06:22:02;2.00;99.90
28654;DHT22;24320;56.980;24.336;2023-01-30T06:24:29;2.00;99.90
28654;DHT22;24320;56.980;24.336;2023-01-30T06:26:58;2.00;99.90
28654;DHT22;24320;56.980;24.336;2023-01-30T06:29:25;2.00;99.90
28654;DHT22;24320;56.980;24.336;2023-01-30T06:31:52;2.00;99.90
28654;DHT22;24320;56.980;24.336;2023-01-30T06:34:19;2.00;99.90
28654;DHT22;24320;56.980;24.336;2023-01-30T06:36:46;2.00;99.90
28654;DHT22;24320;56.980;24.336;2023-01-30T06:39:13;2.00;99.90
28654;DHT22;24320;56.980;24.336;2023-01-30T06:41:40;2.00;99.90
28654;DHT22;24320;56.980;24.336;2023-01-30T06:44:08;2.00;99.90
28654;DHT22;24320;56.980;24.336;2023-01-30T06:46:35;2.10;99.90
28654;DHT22;24320;56.980;24.336;2023-01-30T06:49:02;2.00;99.90
28654;DHT22;24320;56.980;24.336;2023-01-30T06:51:29;2.00;99.90
28654;DHT22;24320;56.980;24.336;2023-01-30T06:53:56;2.00;99.90
28654;DHT22;24320;56.980;24.336;2023-01-30T06:56:23;2.00;99.90
28654;DHT22;24320;56.980;24.336;2023-01-30T06:58:50;2.00;99.90
28654;DHT22;24320;56.980;24.336;2023-01-30T07:01:17;2.00;99.90
28654;DHT22;24320;56.980;24.336;2023-01-30T07:03:45;2.00;99.90
28654;DHT22;24320;56.980;24.336;2023-01-30T07:06:12;2.00;99.90
28654;DHT22;24320;56.980;24.336;2023-01-30T07:08:39;2.00;99.90
28654;DHT22;24320;56.980;24.336;2023-01-30T07:11:06;2.00;99.90
28654;DHT22;24320;56.980;24.336;2023-01-30T07:13:33;2.00;99.90
28654;DHT22;24320;56.980;24.336;2023-01-30T07:16:00;2.00;99.90
28654;DHT22;24320;56.980;24.336;2023-01-30T07:18:27;2.00;99.90
28654;DHT22;24320;56.980;24.336;2023-01-30T07:20:54;2.00;99.90
28654;DHT22;24320;56.980;24.336;2023-01-30T07:23:21;2.10;99.90
28654;DHT22;24320;56.980;24.336;2023-01-30T07:25:48;2.10;99.90
28654;DHT22;24320;56.980;24.336;2023-01-30T07:28:15;2.10;99.90
28654;DHT22;24320;56.980;24.336;2023-01-30T07:30:42;2.10;99.90
28654;DHT22;24320;56.980;24.336;2023-01-30T07:33:09;2.10;99.90
28654;DHT22;24320;56.980;24.336;2023-01-30T07:35:37;2.10;99.90
28654;DHT22;24320;56.980;24.336;2023-01-30T07:38:04;2.10;99.90
28654;DHT22;24320;56.980;24.336;2023-01-30T07:40:32;2.10;99.90
28654;DHT22;24320;56.980;24.336;2023-01-30T07:43:03;2.10;99.90
28654;DHT22;24320;56.980;24.336;2023-01-30T07:45:43;2.20;99.90
28654;DHT22;24320;56.980;24.336;2023-01-30T07:48:13;2.20;99.90
28654;DHT22;24320;56.980;24.336;2023-01-30T07:50:41;2.20;99.90
28654;DHT22;24320;56.980;24.336;2023-01-30T07:53:10;2.20;99.90
28654;DHT22;24320;56.980;24.336;2023-01-30T07:55:38;2.20;99.90
28654;DHT22;24320;56.980;24.336;2023-01-30T07:58:05;2.30;99.90
28654;DHT22;24320;56.980;24.336;2023-01-30T08:00:32;2.30;99.90
28654;DHT22;24320;56.980;24.336;2023-01-30T08:02:59;2.30;99.90
28654;DHT22;24320;56.980;24.336;2023-01-30T08:05:27;2.30;99.90
28654;DHT22;24320;56.980;24.336;2023-01-30T08:07:57;2.30;99.90
28654;DHT22;24320;56.980;24.336;2023-01-30T08:10:23;2.30;99.90
28654;DHT22;24320;56.980;24.336;2023-01-30T08:12:51;2.30;99.90
28654;DHT22;24320;56.980;24.336;2023-01-30T08:15:18;2.30;99.90
28654;DHT22;24320;56.980;24.336;2023-01-30T08:17:55;2.30;99.90
28654;DHT22;24320;56.980;24.336;2023-01-30T08:20:24;2.30;99.90
28654;DHT22;24320;56.980;24.336;2023-01-30T08:22:51;2.30;99.90
28654;DHT22;24320;56.980;24.336;2023-01-30T08:25:19;2.30;99.90
28654;DHT22;24320;56.980;24.336;2023-01-30T08:27:46;2.30;99.90
28654;DHT22;24320;56.980;24.336;2023-01-30T08:30:13;2.30;99.90
28654;DHT22;24320;56.980;24.336;2023-01-30T08:32:40;2.30;99.90
28654;DHT22;24320;56.980;24.336;2023-01-30T08:35:08;2.30;99.90
28654;DHT22;24320;56.980;24.336;2023-01-30T08:37:35;2.40;99.90
28654;DHT22;24320;56.980;24.336;2023-01-30T08:40:02;2.30;99.90
28654;DHT22;24320;56.980;24.336;2023-01-30T08:42:29;2.40;99.90
28654;DHT22;24320;56.980;24.336;2023-01-30T08:44:56;2.30;99.90
28654;DHT22;24320;56.980;24.336;2023-01-30T08:47:23;2.40;99.90
28654;DHT22;24320;56.980;24.336;2023-01-30T08:49:50;2.40;99.90
28654;DHT22;24320;56.980;24.336;2023-01-30T08:52:19;2.40;99.90
28654;DHT22;24320;56.980;24.336;2023-01-30T08:54:46;2.40;99.90
28654;DHT22;24320;56.980;24.336;2023-01-30T08:57:14;2.40;99.90
28654;DHT22;24320;56.980;24.336;2023-01-30T08:59:41;2.40;99.90
28654;DHT22;24320;56.980;24.336;2023-01-30T09:02:10;2.40;99.90
28654;DHT22;24320;56.980;24.336;2023-01-30T09:04:37;2.40;99.90
28654;DHT22;24320;56.980;24.336;2023-01-30T09:07:04;2.50;99.90
28654;DHT22;24320;56.980;24.336;2023-01-30T09:09:31;2.50;99.90
28654;DHT22;24320;56.980;24.336;2023-01-30T09:11:59;2.50;99.90
28654;DHT22;24320;56.980;24.336;2023-01-30T09:14:26;2.60;99.90
28654;DHT22;24320;56.980;24.336;2023-01-30T09:16:53;2.60;99.90
28654;DHT22;24320;56.980;24.336;2023-01-30T09:19:24;2.60;99.90
28654;DHT22;24320;56.980;24.336;2023-01-30T09:21:52;2.70;99.90
28654;DHT22;24320;56.980;24.336;2023-01-30T09:24:20;2.70;99.90
28654;DHT22;24320;56.980;24.336;2023-01-30T09:26:53;2.80;99.90
28654;DHT22;24320;56.980;24.336;2023-01-30T09:29:23;2.80;99.90
28654;DHT22;24320;56.980;24.336;2023-01-30T09:31:50;2.80;99.90
28654;DHT22;24320;56.980;24.336;2023-01-30T09:34:17;2.80;99.90
28654;DHT22;24320;56.980;24.336;2023-01-30T09:36:44;2.80;99.90
28654;DHT22;24320;56.980;24.336;2023-01-30T09:39:11;2.80;99.90
28654;DHT22;24320;56.980;24.336;2023-01-30T09:55:18;2.70;99.90
28654;DHT22;24320;56.980;24.336;2023-01-30T09:57:50;2.80;99.90
28654;DHT22;24320;56.980;24.336;2023-01-30T10:00:38;2.90;99.90
28654;DHT22;24320;56.980;24.336;2023-01-30T10:03:28;2.90;99.90
28654;DHT22;24320;56.980;24.336;2023-01-30T10:06:08;2.90;99.90
28654;DHT22;24320;56.980;24.336;2023-01-30T10:27:24;3.20;99.90
28654;DHT22;24320;56.980;24.336;2023-01-30T10:29:54;3.20;99.90
28654;DHT22;24320;56.980;24.336;2023-01-30T10:34:54;3.40;99.90
28654;DHT22;24320;56.980;24.336;2023-01-30T10:37:38;3.40;99.90
28654;DHT22;24320;56.980;24.336;2023-01-30T10:46:03;3.50;99.90
28654;DHT22;24320;56.980;24.336;2023-01-30T10:48:57;3.50;99.90
28654;DHT22;24320;56.980;24.336;2023-01-30T10:51:45;3.50;99.90
28654;DHT22;24320;56.980;24.336;2023-01-30T10:54:24;3.50;99.90
28654;DHT22;24320;56.980;24.336;2023-01-30T10:59:57;3.60;99.90
28654;DHT22;24320;56.980;24.336;2023-01-30T11:05:50;3.70;99.90
28654;DHT22;24320;56.980;24.336;2023-01-30T11:08:23;3.70;99.90
28654;DHT22;24320;56.980;24.336;2023-01-30T11:10:52;3.70;99.90
28654;DHT22;24320;56.980;24.336;2023-01-30T11:13:38;3.70;99.90
28654;DHT22;24320;56.980;24.336;2023-01-30T11:16:07;3.70;99.90
28654;DHT22;24320;56.980;24.336;2023-01-30T11:18:44;3.70;99.90
28654;DHT22;24320;56.980;24.336;2023-01-30T11:21:32;3.70;99.90
28654;DHT22;24320;56.980;24.336;2023-01-30T11:24:27;3.70;99.90
28654;DHT22;24320;56.980;24.336;2023-01-30T11:27:08;3.70;99.90
28654;DHT22;24320;56.980;24.336;2023-01-30T11:29:37;3.70;99.90
28654;DHT22;24320;56.980;24.336;2023-01-30T11:32:11;3.80;99.90
28654;DHT22;24320;56.980;24.336;2023-01-30T11:34:41;3.80;99.90
28654;DHT22;24320;56.980;24.336;2023-01-30T11:39:49;3.70;99.90
28654;DHT22;24320;56.980;24.336;2023-01-30T11:42:19;3.70;99.90
28654;DHT22;24320;56.980;24.336;2023-01-30T11:44:46;3.80;99.90
28654;DHT22;24320;56.980;24.336;2023-01-30T11:47:32;3.80;99.90
28654;DHT22;24320;56.980;24.336;2023-01-30T11:50:01;3.80;99.90
28654;DHT22;24320;56.980;24.336;2023-01-30T11:52:47;3.80;99.90
28654;DHT22;24320;56.980;24.336;2023-01-30T11:55:18;3.80;99.90
28654;DHT22;24320;56.980;24.336;2023-01-30T11:57:52;3.80;99.90
28654;DHT22;24320;56.980;24.336;2023-01-30T12:00:23;3.80;99.90
28654;DHT22;24320;56.980;24.336;2023-01-30T12:02:52;3.90;99.90
28654;DHT22;24320;56.980;24.336;2023-01-30T12:05:24;3.90;99.90
28654;DHT22;24320;56.980;24.336;2023-01-30T12:11:30;3.90;99.90
28654;DHT22;24320;56.980;24.336;2023-01-30T12:19:59;3.90;99.90
28654;DHT22;24320;56.980;24.336;2023-01-30T12:25:22;3.90;99.90
28654;DHT22;24320;56.980;24.336;2023-01-30T12:30:36;3.90;99.90
28654;DHT22;24320;56.980;24.336;2023-01-30T12:33:05;3.90;99.90
28654;DHT22;24320;56.980;24.336;2023-01-30T12:41:11;4.00;99.90
28654;DHT22;24320;56.980;24.336;2023-01-30T12:46:49;3.90;99.90
28654;DHT22;24320;56.980;24.336;2023-01-30T13:05:41;4.00;99.90
28654;DHT22;24320;56.980;24.336;2023-01-30T13:11:26;4.00;99.90
28654;DHT22;24320;56.980;24.336;2023-01-30T13:14:01;4.10;99.90
28654;DHT22;24320;56.980;24.336;2023-01-30T13:27:57;4.00;99.90
28654;DHT22;24320;56.980;24.336;2023-01-30T13:30:28;4.00;99.90
28654;DHT22;24320;56.980;24.336;2023-01-30T13:33:09;3.90;99.90
28654;DHT22;24320;56.980;24.336;2023-01-30T13:35:48;3.90;99.90
28654;DHT22;24320;56.980;24.336;2023-01-30T13:38:20;3.90;99.90
28654;DHT22;24320;56.980;24.336;2023-01-30T13:40:50;4.00;99.90
28654;DHT22;24320;56.980;24.336;2023-01-30T13:43:52;4.00;99.90
28654;DHT22;24320;56.980;24.336;2023-01-30T13:46:22;4.00;99.90
28654;DHT22;24320;56.980;24.336;2023-01-30T13:49:43;4.00;99.90
28654;DHT22;24320;56.980;24.336;2023-01-30T13:51:45;4.00;99.90
28654;DHT22;24320;56.980;24.336;2023-01-30T13:54:41;4.00;99.90
28654;DHT22;24320;56.980;24.336;2023-01-30T14:08:27;3.90;99.90
28654;DHT22;24320;56.980;24.336;2023-01-30T14:10:58;3.90;99.90
28654;DHT22;24320;56.980;24.336;2023-01-30T14:13:26;3.90;99.90
28654;DHT22;24320;56.980;24.336;2023-01-30T14:16:04;3.90;99.90
28654;DHT22;24320;56.980;24.336;2023-01-30T14:18:38;3.80;99.90
28654;DHT22;24320;56.980;24.336;2023-01-30T14:24:00;3.80;99.90
28654;DHT22;24320;56.980;24.336;2023-01-30T14:34:43;3.80;99.90
28654;DHT22;24320;56.980;24.336;2023-01-30T14:51:41;3.80;99.90
28654;DHT22;24320;56.980;24.336;2023-01-30T14:56:48;3.80;99.90
28654;DHT22;24320;56.980;24.336;2023-01-30T14:59:22;3.80;99.90
28654;DHT22;24320;56.980;24.336;2023-01-30T15:07:10;3.80;99.90
28654;DHT22;24320;56.980;24.336;2023-01-30T15:09:39;3.80;99.90
28654;DHT22;24320;56.980;24.336;2023-01-30T15:26:09;3.70;99.90
28654;DHT22;24320;56.980;24.336;2023-01-30T15:31:38;3.70;99.90
28654;DHT22;24320;56.980;24.336;2023-01-30T15:34:18;3.70;99.90
28654;DHT22;24320;56.980;24.336;2023-01-30T15:36:45;3.70;99.90
28654;DHT22;24320;56.980;24.336;2023-01-30T15:39:19;3.70;99.90
28654;DHT22;24320;56.980;24.336;2023-01-30T15:41:47;3.60;99.90
28654;DHT22;24320;56.980;24.336;2023-01-30T15:52:18;3.60;99.90
28654;DHT22;24320;56.980;24.336;2023-01-30T15:54:51;3.60;99.90
28654;DHT22;24320;56.980;24.336;2023-01-30T15:57:33;3.60;99.90
28654;DHT22;24320;56.980;24.336;2023-01-30T16:00:03;3.60;99.90
28654;DHT22;24320;56.980;24.336;2023-01-30T16:02:33;3.60;99.90
28654;DHT22;24320;56.980;24.336;2023-01-30T16:05:19;3.60;99.90
28654;DHT22;24320;56.980;24.336;2023-01-30T16:07:48;3.50;99.90
28654;DHT22;24320;56.980;24.336;2023-01-30T16:10:20;3.50;99.90
28654;DHT22;24320;56.980;24.336;2023-01-30T16:12:48;3.60;99.90
28654;DHT22;24320;56.980;24.336;2023-01-30T16:15:23;3.50;99.90
28654;DHT22;24320;56.980;24.336;2023-01-30T16:18:03;3.50;99.90
28654;DHT22;24320;56.980;24.336;2023-01-30T16:26:02;3.50;99.90
28654;DHT22;24320;56.980;24.336;2023-01-30T16:28:30;3.50;99.90
28654;DHT22;24320;56.980;24.336;2023-01-30T16:31:05;3.50;99.90
28654;DHT22;24320;56.980;24.336;2023-01-30T16:33:33;3.50;99.90
28654;DHT22;24320;56.980;24.336;2023-01-30T16:38:47;3.50;99.90
28654;DHT22;24320;56.980;24.336;2023-01-30T16:41:27;3.50;99.90
28654;DHT22;24320;56.980;24.336;2023-01-30T16:49:24;3.50;99.90
28654;DHT22;24320;56.980;24.336;2023-01-30T16:52:02;3.50;99.90
28654;DHT22;24320;56.980;24.336;2023-01-30T16:54:31;3.50;99.90
28654;DHT22;24320;56.980;24.336;2023-01-30T16:57:00;3.50;99.90
28654;DHT22;24320;56.980;24.336;2023-01-30T16:59:30;3.50;99.90
28654;DHT22;24320;56.980;24.336;2023-01-30T17:01:58;3.50;99.90
28654;DHT22;24320;56.980;24.336;2023-01-30T17:04:29;3.50;99.90
28654;DHT22;24320;56.980;24.336;2023-01-30T17:06:58;3.60;99.90
28654;DHT22;24320;56.980;24.336;2023-01-30T17:09:42;3.60;99.90
28654;DHT22;24320;56.980;24.336;2023-01-30T17:12:34;3.50;99.90
28654;DHT22;24320;56.980;24.336;2023-01-30T17:17:38;3.50;99.90
28654;DHT22;24320;56.980;24.336;2023-01-30T17:20:06;3.50;99.90
28654;DHT22;24320;56.980;24.336;2023-01-30T17:22:33;3.50;99.90
28654;DHT22;24320;56.980;24.336;2023-01-30T17:25:02;3.50;99.90
28654;DHT22;24320;56.980;24.336;2023-01-30T17:27:31;3.50;99.90
28654;DHT22;24320;56.980;24.336;2023-01-30T17:29:58;3.50;99.90
28654;DHT22;24320;56.980;24.336;2023-01-30T17:32:25;3.50;99.90
28654;DHT22;24320;56.980;24.336;2023-01-30T17:34:52;3.50;99.90
28654;DHT22;24320;56.980;24.336;2023-01-30T17:37:21;3.50;99.90
28654;DHT22;24320;56.980;24.336;2023-01-30T17:39:48;3.50;99.90
28654;DHT22;24320;56.980;24.336;2023-01-30T17:42:16;3.50;99.90
28654;DHT22;24320;56.980;24.336;2023-01-30T17:44:44;3.50;99.90
28654;DHT22;24320;56.980;24.336;2023-01-30T17:47:11;3.50;99.90
28654;DHT22;24320;56.980;24.336;2023-01-30T17:49:38;3.40;99.90
28654;DHT22;24320;56.980;24.336;2023-01-30T17:52:05;3.50;99.90
28654;DHT22;24320;56.980;24.336;2023-01-30T17:54:32;3.40;99.90
28654;DHT22;24320;56.980;24.336;2023-01-30T17:57:02;3.40;99.90
28654;DHT22;24320;56.980;24.336;2023-01-30T17:59:30;3.40;99.90
28654;DHT22;24320;56.980;24.336;2023-01-30T18:01:58;3.40;99.90
28654;DHT22;24320;56.980;24.336;2023-01-30T18:04:25;3.40;99.90
28654;DHT22;24320;56.980;24.336;2023-01-30T18:06:54;3.40;99.90
28654;DHT22;24320;56.980;24.336;2023-01-30T18:09:23;3.40;99.90
28654;DHT22;24320;56.980;24.336;2023-01-30T18:11:50;3.40;99.90
28654;DHT22;24320;56.980;24.336;2023-01-30T18:14:18;3.40;99.90
28654;DHT22;24320;56.980;24.336;2023-01-30T18:16:45;3.40;99.90
28654;DHT22;24320;56.980;24.336;2023-01-30T18:19:13;3.40;99.90
28654;DHT22;24320;56.980;24.336;2023-01-30T18:21:41;3.30;99.90
28654;DHT22;24320;56.980;24.336;2023-01-30T18:24:12;3.30;99.90
28654;DHT22;24320;56.980;24.336;2023-01-30T18:26:39;3.30;99.90
28654;DHT22;24320;56.980;24.336;2023-01-30T18:29:07;3.30;99.90
28654;DHT22;24320;56.980;24.336;2023-01-30T18:31:36;3.30;99.90
28654;DHT22;24320;56.980;24.336;2023-01-30T18:34:04;3.30;99.90
28654;DHT22;24320;56.980;24.336;2023-01-30T18:36:33;3.30;99.90
28654;DHT22;24320;56.980;24.336;2023-01-30T18:39:01;3.30;99.90
28654;DHT22;24320;56.980;24.336;2023-01-30T18:41:29;3.30;99.90
28654;DHT22;24320;56.980;24.336;2023-01-30T18:44:01;3.30;99.90
28654;DHT22;24320;56.980;24.336;2023-01-30T18:46:29;3.30;99.90
28654;DHT22;24320;56.980;24.336;2023-01-30T18:48:57;3.30;99.90
28654;DHT22;24320;56.980;24.336;2023-01-30T18:51:29;3.30;99.90
28654;DHT22;24320;56.980;24.336;2023-01-30T18:53:59;3.40;99.90
28654;DHT22;24320;56.980;24.336;2023-01-30T18:56:29;3.30;99.90
28654;DHT22;24320;56.980;24.336;2023-01-30T18:59:00;3.40;99.90
28654;DHT22;24320;56.980;24.336;2023-01-30T19:01:32;3.40;99.90
28654;DHT22;24320;56.980;24.336;2023-01-30T19:04:06;3.40;99.90
28654;DHT22;24320;56.980;24.336;2023-01-30T19:06:35;3.30;99.90
28654;DHT22;24320;56.980;24.336;2023-01-30T19:09:03;3.30;99.90
28654;DHT22;24320;56.980;24.336;2023-01-30T19:11:30;3.30;99.90
28654;DHT22;24320;56.980;24.336;2023-01-30T19:14:16;3.30;99.90
28654;DHT22;24320;56.980;24.336;2023-01-30T19:16:43;3.30;99.90
28654;DHT22;24320;56.980;24.336;2023-01-30T19:19:10;3.30;99.90
28654;DHT22;24320;56.980;24.336;2023-01-30T19:21:37;3.30;99.90
28654;DHT22;24320;56.980;24.336;2023-01-30T19:24:06;3.30;99.90
28654;DHT22;24320;56.980;24.336;2023-01-30T19:26:33;3.30;99.90
28654;DHT22;24320;56.980;24.336;2023-01-30T19:29:01;3.30;99.90